sensor_id;sensor_type;location;lat;lon;timestamp;P1;durP1;ratioP1;P2;durP2;ratioP2
75459;SDS011;64039;53.060;9.342;2023-02-01T00:01:23;19.10;;;2.63;;
75459;SDS011;64039;53.060;9.342;2023-02-01T00:03:49;25.70;;;3.00;;
75459;SDS011;64039;53.060;9.342;2023-02-01T00:06:14;19.08;;;3.25;;
75459;SDS011;64039;53.060;9.342;2023-02-01T00:08:40;23.77;;;3.20;;
75459;SDS011;64039;53.060;9.342;2023-02-01T00:11:07;18.40;;;2.40;;
75459;SDS011;64039;53.060;9.342;2023-02-01T00:13:34;15.77;;;2.38;;
75459;SDS011;64039;53.060;9.342;2023-02-01T00:16:13;25.48;;;3.83;;
75459;SDS011;64039;53.060;9.342;2023-02-01T00:18:44;17.95;;;2.83;;
75459;SDS011;64039;53.060;9.342;2023-02-01T00:21:10;20.90;;;3.08;;
75459;SDS011;64039;53.060;9.342;2023-02-01T00:23:37;19.10;;;2.60;;
75459;SDS011;64039;53.060;9.342;2023-02-01T00:26:04;16.90;;;2.63;;
75459;SDS011;64039;53.060;9.342;2023-02-01T00:28:31;15.90;;;3.08;;
75459;SDS011;64039;53.060;9.342;2023-02-01T00:30:59;25.90;;;3.13;;
75459;SDS011;64039;53.060;9.342;2023-02-01T00:33:27;19.13;;;3.35;;
75459;SDS011;64039;53.060;9.342;2023-02-01T00:35:56;17.48;;;3.38;;
75459;SDS011;64039;53.060;9.342;2023-02-01T00:38:24;17.35;;;3.42;;
75459;SDS011;64039;53.060;9.342;2023-02-01T00:40:50;16.73;;;2.45;;
75459;SDS011;64039;53.060;9.342;2023-02-01T00:43:16;24.00;;;3.40;;
75459;SDS011;64039;53.060;9.342;2023-02-01T00:45:41;21.60;;;4.07;;
75459;SDS011;64039;53.060;9.342;2023-02-01T00:48:06;24.40;;;3.55;;
75459;SDS011;64039;53.060;9.342;2023-02-01T00:50:32;17.40;;;2.60;;
75459;SDS011;64039;53.060;9.342;2023-02-01T00:52:57;20.05;;;2.53;;
75459;SDS011;64039;53.060;9.342;2023-02-01T00:55:23;15.63;;;2.75;;
75459;SDS011;64039;53.060;9.342;2023-02-01T00:57:48;15.82;;;3.05;;
75459;SDS011;64039;53.060;9.342;2023-02-01T01:00:14;15.93;;;3.33;;
75459;SDS011;64039;53.060;9.342;2023-02-01T01:02:41;31.63;;;3.78;;
75459;SDS011;64039;53.060;9.342;2023-02-01T01:05:06;24.17;;;3.30;;
75459;SDS011;64039;53.060;9.342;2023-02-01T01:07:32;18.70;;;3.30;;
75459;SDS011;64039;53.060;9.342;2023-02-01T01:09:57;19.23;;;3.15;;
75459;SDS011;64039;53.060;9.342;2023-02-01T01:12:22;16.85;;;2.97;;
75459;SDS011;64039;53.060;9.342;2023-02-01T01:14:48;20.10;;;2.75;;
75459;SDS011;64039;53.060;9.342;2023-02-01T01:17:13;25.38;;;3.13;;
75459;SDS011;64039;53.060;9.342;2023-02-01T01:19:39;15.90;;;2.80;;
75459;SDS011;64039;53.060;9.342;2023-02-01T01:22:04;15.68;;;2.85;;
75459;SDS011;64039;53.060;9.342;2023-02-01T01:24:30;20.80;;;3.03;;
75459;SDS011;64039;53.060;9.342;2023-02-01T01:26:55;18.25;;;2.88;;
75459;SDS011;64039;53.060;9.342;2023-02-01T01:29:21;17.05;;;2.90;;
75459;SDS011;64039;53.060;9.342;2023-02-01T01:31:46;15.55;;;2.95;;
75459;SDS011;64039;53.060;9.342;2023-02-01T01:34:11;15.20;;;3.22;;
75459;SDS011;64039;53.060;9.342;2023-02-01T01:36:38;19.42;;;3.10;;
75459;SDS011;64039;53.060;9.342;2023-02-01T01:39:04;18.83;;;3.15;;
75459;SDS011;64039;53.060;9.342;2023-02-01T01:41:30;20.35;;;3.13;;
75459;SDS011;64039;53.060;9.342;2023-02-01T01:44:00;21.70;;;3.45;;
75459;SDS011;64039;53.060;9.342;2023-02-01T01:46:31;17.92;;;3.17;;
75459;SDS011;64039;53.060;9.342;2023-02-01T01:51:41;21.33;;;2.83;;
75459;SDS011;64039;53.060;9.342;2023-02-01T01:54:13;20.30;;;3.28;;
75459;SDS011;64039;53.060;9.342;2023-02-01T01:56:53;24.92;;;2.88;;
75459;SDS011;64039;53.060;9.342;2023-02-01T01:59:22;23.95;;;3.30;;
75459;SDS011;64039;53.060;9.342;2023-02-01T02:01:50;15.93;;;3.42;;
75459;SDS011;64039;53.060;9.342;2023-02-01T02:04:17;19.63;;;3.50;;
75459;SDS011;64039;53.060;9.342;2023-02-01T02:09:22;16.10;;;3.03;;
75459;SDS011;64039;53.060;9.342;2023-02-01T02:11:48;14.98;;;3.40;;
75459;SDS011;64039;53.060;9.342;2023-02-01T02:14:13;14.40;;;3.00;;
75459;SDS011;64039;53.060;9.342;2023-02-01T02:16:52;19.50;;;2.63;;
75459;SDS011;64039;53.060;9.342;2023-02-01T02:25:23;18.63;;;2.72;;
75459;SDS011;64039;53.060;9.342;2023-02-01T02:33:46;19.17;;;3.50;;
75459;SDS011;64039;53.060;9.342;2023-02-01T02:36:30;18.60;;;2.88;;
75459;SDS011;64039;53.060;9.342;2023-02-01T02:39:12;22.58;;;2.95;;
75459;SDS011;64039;53.060;9.342;2023-02-01T02:48:12;13.77;;;2.22;;
75459;SDS011;64039;53.060;9.342;2023-02-01T02:50:54;24.25;;;3.22;;
75459;SDS011;64039;53.060;9.342;2023-02-01T02:59:33;21.92;;;3.33;;
75459;SDS011;64039;53.060;9.342;2023-02-01T03:02:19;19.27;;;3.17;;
75459;SDS011;64039;53.060;9.342;2023-02-01T03:05:04;19.50;;;3.03;;
75459;SDS011;64039;53.060;9.342;2023-02-01T03:10:18;22.08;;;3.40;;
75459;SDS011;64039;53.060;9.342;2023-02-01T03:13:10;19.13;;;2.80;;
75459;SDS011;64039;53.060;9.342;2023-02-01T03:21:32;18.08;;;3.03;;
75459;SDS011;64039;53.060;9.342;2023-02-01T03:24:02;19.48;;;2.83;;
75459;SDS011;64039;53.060;9.342;2023-02-01T03:26:33;19.02;;;3.35;;
75459;SDS011;64039;53.060;9.342;2023-02-01T03:29:08;15.55;;;2.70;;
75459;SDS011;64039;53.060;9.342;2023-02-01T03:31:40;15.27;;;2.85;;
75459;SDS011;64039;53.060;9.342;2023-02-01T03:34:06;15.57;;;2.30;;
75459;SDS011;64039;53.060;9.342;2023-02-01T03:39:25;15.93;;;2.65;;
75459;SDS011;64039;53.060;9.342;2023-02-01T03:42:09;25.95;;;3.55;;
75459;SDS011;64039;53.060;9.342;2023-02-01T03:44:49;15.77;;;2.90;;
75459;SDS011;64039;53.060;9.342;2023-02-01T03:47:21;16.83;;;3.05;;
75459;SDS011;64039;53.060;9.342;2023-02-01T03:49:51;17.30;;;3.17;;
75459;SDS011;64039;53.060;9.342;2023-02-01T03:52:27;16.15;;;2.78;;
75459;SDS011;64039;53.060;9.342;2023-02-01T03:54:55;14.80;;;2.38;;
75459;SDS011;64039;53.060;9.342;2023-02-01T03:57:24;21.25;;;2.75;;
75459;SDS011;64039;53.060;9.342;2023-02-01T03:59:54;12.87;;;2.33;;
75459;SDS011;64039;53.060;9.342;2023-02-01T04:02:30;13.60;;;2.78;;
75459;SDS011;64039;53.060;9.342;2023-02-01T04:04:55;21.52;;;2.42;;
75459;SDS011;64039;53.060;9.342;2023-02-01T04:07:20;15.80;;;2.92;;
75459;SDS011;64039;53.060;9.342;2023-02-01T04:09:46;27.67;;;3.90;;
75459;SDS011;64039;53.060;9.342;2023-02-01T04:12:11;25.20;;;3.10;;
75459;SDS011;64039;53.060;9.342;2023-02-01T04:14:37;17.42;;;2.80;;
75459;SDS011;64039;53.060;9.342;2023-02-01T04:17:02;18.63;;;3.65;;
75459;SDS011;64039;53.060;9.342;2023-02-01T04:19:28;26.13;;;3.95;;
75459;SDS011;64039;53.060;9.342;2023-02-01T04:21:53;22.33;;;3.20;;
75459;SDS011;64039;53.060;9.342;2023-02-01T04:24:18;16.35;;;3.95;;
75459;SDS011;64039;53.060;9.342;2023-02-01T04:26:44;17.75;;;2.70;;
75459;SDS011;64039;53.060;9.342;2023-02-01T04:29:09;14.18;;;2.90;;
75459;SDS011;64039;53.060;9.342;2023-02-01T04:31:35;13.85;;;2.60;;
75459;SDS011;64039;53.060;9.342;2023-02-01T04:34:01;20.50;;;3.22;;
75459;SDS011;64039;53.060;9.342;2023-02-01T04:36:26;12.18;;;2.50;;
75459;SDS011;64039;53.060;9.342;2023-02-01T04:38:52;9.00;;;2.50;;
75459;SDS011;64039;53.060;9.342;2023-02-01T04:41:18;10.63;;;2.28;;
75459;SDS011;64039;53.060;9.342;2023-02-01T04:43:47;12.18;;;3.05;;
75459;SDS011;64039;53.060;9.342;2023-02-01T04:46:13;9.93;;;2.22;;
75459;SDS011;64039;53.060;9.342;2023-02-01T04:48:39;10.70;;;2.15;;
75459;SDS011;64039;53.060;9.342;2023-02-01T04:51:05;13.88;;;1.83;;
75459;SDS011;64039;53.060;9.342;2023-02-01T04:53:30;12.63;;;2.30;;
75459;SDS011;64039;53.060;9.342;2023-02-01T04:55:56;10.93;;;2.28;;
75459;SDS011;64039;53.060;9.342;2023-02-01T04:58:22;10.75;;;2.42;;
75459;SDS011;64039;53.060;9.342;2023-02-01T05:00:47;12.90;;;2.63;;
75459;SDS011;64039;53.060;9.342;2023-02-01T05:03:13;13.90;;;2.90;;
75459;SDS011;64039;53.060;9.342;2023-02-01T05:05:38;14.23;;;3.38;;
75459;SDS011;64039;53.060;9.342;2023-02-01T05:08:04;17.75;;;3.55;;
75459;SDS011;64039;53.060;9.342;2023-02-01T05:10:29;16.15;;;2.75;;
75459;SDS011;64039;53.060;9.342;2023-02-01T05:12:55;16.50;;;3.45;;
75459;SDS011;64039;53.060;9.342;2023-02-01T05:15:39;11.48;;;2.10;;
75459;SDS011;64039;53.060;9.342;2023-02-01T05:18:04;8.02;;;1.45;;
75459;SDS011;64039;53.060;9.342;2023-02-01T05:20:30;9.95;;;2.05;;
75459;SDS011;64039;53.060;9.342;2023-02-01T05:22:55;10.48;;;2.33;;
75459;SDS011;64039;53.060;9.342;2023-02-01T05:25:21;13.40;;;2.35;;
75459;SDS011;64039;53.060;9.342;2023-02-01T05:27:46;11.82;;;2.38;;
75459;SDS011;64039;53.060;9.342;2023-02-01T05:30:12;17.77;;;3.15;;
75459;SDS011;64039;53.060;9.342;2023-02-01T05:32:37;12.68;;;2.80;;
75459;SDS011;64039;53.060;9.342;2023-02-01T05:35:03;19.98;;;3.58;;
75459;SDS011;64039;53.060;9.342;2023-02-01T05:37:29;15.30;;;3.15;;
75459;SDS011;64039;53.060;9.342;2023-02-01T05:39:54;17.27;;;3.67;;
75459;SDS011;64039;53.060;9.342;2023-02-01T05:42:19;18.90;;;3.38;;
75459;SDS011;64039;53.060;9.342;2023-02-01T05:44:45;19.83;;;3.72;;
75459;SDS011;64039;53.060;9.342;2023-02-01T05:47:10;17.42;;;3.80;;
75459;SDS011;64039;53.060;9.342;2023-02-01T05:49:37;20.30;;;3.78;;
75459;SDS011;64039;53.060;9.342;2023-02-01T05:52:02;16.23;;;3.63;;
75459;SDS011;64039;53.060;9.342;2023-02-01T05:54:28;17.88;;;3.40;;
75459;SDS011;64039;53.060;9.342;2023-02-01T05:56:54;20.05;;;3.22;;
75459;SDS011;64039;53.060;9.342;2023-02-01T05:59:19;15.55;;;3.25;;
75459;SDS011;64039;53.060;9.342;2023-02-01T06:01:44;11.48;;;2.65;;
75459;SDS011;64039;53.060;9.342;2023-02-01T06:04:10;13.82;;;3.05;;
75459;SDS011;64039;53.060;9.342;2023-02-01T06:06:35;15.82;;;3.40;;
75459;SDS011;64039;53.060;9.342;2023-02-01T06:09:02;13.77;;;2.88;;
75459;SDS011;64039;53.060;9.342;2023-02-01T06:11:28;19.35;;;3.25;;
75459;SDS011;64039;53.060;9.342;2023-02-01T06:13:54;15.65;;;2.55;;
75459;SDS011;64039;53.060;9.342;2023-02-01T06:16:20;11.52;;;2.78;;
75459;SDS011;64039;53.060;9.342;2023-02-01T06:18:46;15.02;;;2.50;;
75459;SDS011;64039;53.060;9.342;2023-02-01T06:21:12;9.75;;;2.42;;
75459;SDS011;64039;53.060;9.342;2023-02-01T06:23:39;12.98;;;2.28;;
75459;SDS011;64039;53.060;9.342;2023-02-01T06:26:05;15.40;;;2.53;;
75459;SDS011;64039;53.060;9.342;2023-02-01T06:28:35;11.43;;;2.50;;
75459;SDS011;64039;53.060;9.342;2023-02-01T06:31:06;9.55;;;2.20;;
75459;SDS011;64039;53.060;9.342;2023-02-01T06:33:35;12.32;;;2.33;;
75459;SDS011;64039;53.060;9.342;2023-02-01T06:36:03;16.27;;;2.63;;
75459;SDS011;64039;53.060;9.342;2023-02-01T06:38:30;12.80;;;2.13;;
75459;SDS011;64039;53.060;9.342;2023-02-01T06:40:57;19.25;;;2.67;;
75459;SDS011;64039;53.060;9.342;2023-02-01T06:43:24;16.25;;;3.15;;
75459;SDS011;64039;53.060;9.342;2023-02-01T06:45:50;11.48;;;2.67;;
75459;SDS011;64039;53.060;9.342;2023-02-01T06:48:16;12.18;;;3.05;;
75459;SDS011;64039;53.060;9.342;2023-02-01T06:50:41;12.75;;;2.60;;
75459;SDS011;64039;53.060;9.342;2023-02-01T06:53:07;16.08;;;2.90;;
75459;SDS011;64039;53.060;9.342;2023-02-01T06:55:32;17.30;;;3.03;;
75459;SDS011;64039;53.060;9.342;2023-02-01T06:57:58;14.02;;;2.83;;
75459;SDS011;64039;53.060;9.342;2023-02-01T07:00:23;16.95;;;2.88;;
75459;SDS011;64039;53.060;9.342;2023-02-01T07:02:49;12.77;;;2.60;;
75459;SDS011;64039;53.060;9.342;2023-02-01T07:05:15;18.83;;;3.10;;
75459;SDS011;64039;53.060;9.342;2023-02-01T07:07:41;15.20;;;2.97;;
75459;SDS011;64039;53.060;9.342;2023-02-01T07:10:06;13.98;;;2.63;;
75459;SDS011;64039;53.060;9.342;2023-02-01T07:12:32;14.13;;;2.67;;
75459;SDS011;64039;53.060;9.342;2023-02-01T07:14:57;13.02;;;2.38;;
75459;SDS011;64039;53.060;9.342;2023-02-01T07:17:23;19.55;;;2.63;;
75459;SDS011;64039;53.060;9.342;2023-02-01T07:19:48;10.50;;;2.67;;
75459;SDS011;64039;53.060;9.342;2023-02-01T07:22:17;18.25;;;2.40;;
75459;SDS011;64039;53.060;9.342;2023-02-01T07:24:42;19.35;;;3.08;;
75459;SDS011;64039;53.060;9.342;2023-02-01T07:27:08;15.77;;;2.80;;
75459;SDS011;64039;53.060;9.342;2023-02-01T07:29:33;13.18;;;2.30;;
75459;SDS011;64039;53.060;9.342;2023-02-01T07:31:58;16.58;;;2.30;;
75459;SDS011;64039;53.060;9.342;2023-02-01T07:34:25;12.23;;;1.80;;
75459;SDS011;64039;53.060;9.342;2023-02-01T07:36:51;14.75;;;2.30;;
75459;SDS011;64039;53.060;9.342;2023-02-01T07:39:16;10.52;;;2.25;;
75459;SDS011;64039;53.060;9.342;2023-02-01T07:41:41;7.85;;;2.13;;
75459;SDS011;64039;53.060;9.342;2023-02-01T07:44:07;13.68;;;2.72;;
75459;SDS011;64039;53.060;9.342;2023-02-01T07:46:32;16.83;;;2.92;;
75459;SDS011;64039;53.060;9.342;2023-02-01T07:48:58;19.02;;;2.90;;
75459;SDS011;64039;53.060;9.342;2023-02-01T07:51:23;20.48;;;2.70;;
75459;SDS011;64039;53.060;9.342;2023-02-01T07:53:48;17.20;;;3.25;;
75459;SDS011;64039;53.060;9.342;2023-02-01T07:56:15;12.90;;;2.55;;
75459;SDS011;64039;53.060;9.342;2023-02-01T07:58:42;15.73;;;2.50;;
75459;SDS011;64039;53.060;9.342;2023-02-01T08:01:13;11.63;;;2.50;;
75459;SDS011;64039;53.060;9.342;2023-02-01T08:03:45;18.20;;;2.90;;
75459;SDS011;64039;53.060;9.342;2023-02-01T08:06:15;15.82;;;2.42;;
75459;SDS011;64039;53.060;9.342;2023-02-01T08:08:41;18.25;;;2.75;;
75459;SDS011;64039;53.060;9.342;2023-02-01T08:11:07;20.45;;;3.17;;
75459;SDS011;64039;53.060;9.342;2023-02-01T08:13:33;15.38;;;2.58;;
75459;SDS011;64039;53.060;9.342;2023-02-01T08:16:00;15.70;;;2.50;;
75459;SDS011;64039;53.060;9.342;2023-02-01T08:18:27;16.42;;;3.00;;
75459;SDS011;64039;53.060;9.342;2023-02-01T08:20:53;14.88;;;2.60;;
75459;SDS011;64039;53.060;9.342;2023-02-01T08:23:19;14.48;;;2.60;;
75459;SDS011;64039;53.060;9.342;2023-02-01T08:25:45;12.18;;;2.88;;
75459;SDS011;64039;53.060;9.342;2023-02-01T08:28:11;23.13;;;3.15;;
75459;SDS011;64039;53.060;9.342;2023-02-01T08:30:37;14.63;;;2.67;;
75459;SDS011;64039;53.060;9.342;2023-02-01T08:33:04;16.73;;;2.95;;
75459;SDS011;64039;53.060;9.342;2023-02-01T08:35:34;13.60;;;2.75;;
75459;SDS011;64039;53.060;9.342;2023-02-01T08:38:00;18.45;;;2.90;;
75459;SDS011;64039;53.060;9.342;2023-02-01T08:40:26;15.40;;;2.60;;
75459;SDS011;64039;53.060;9.342;2023-02-01T08:42:51;16.08;;;2.90;;
75459;SDS011;64039;53.060;9.342;2023-02-01T08:45:17;17.95;;;3.05;;
75459;SDS011;64039;53.060;9.342;2023-02-01T08:47:49;23.07;;;3.93;;
75459;SDS011;64039;53.060;9.342;2023-02-01T08:50:15;20.48;;;3.60;;
75459;SDS011;64039;53.060;9.342;2023-02-01T08:52:41;15.85;;;2.85;;
75459;SDS011;64039;53.060;9.342;2023-02-01T08:55:07;15.80;;;2.95;;
75459;SDS011;64039;53.060;9.342;2023-02-01T08:57:33;13.13;;;2.60;;
75459;SDS011;64039;53.060;9.342;2023-02-01T08:59:59;9.77;;;2.13;;
75459;SDS011;64039;53.060;9.342;2023-02-01T09:02:25;12.88;;;2.45;;
75459;SDS011;64039;53.060;9.342;2023-02-01T09:04:51;10.27;;;2.13;;
75459;SDS011;64039;53.060;9.342;2023-02-01T09:07:17;14.02;;;2.28;;
75459;SDS011;64039;53.060;9.342;2023-02-01T09:09:43;14.68;;;2.40;;
75459;SDS011;64039;53.060;9.342;2023-02-01T09:12:09;16.95;;;2.58;;
75459;SDS011;64039;53.060;9.342;2023-02-01T09:14:35;15.18;;;2.50;;
75459;SDS011;64039;53.060;9.342;2023-02-01T09:17:00;15.50;;;2.63;;
75459;SDS011;64039;53.060;9.342;2023-02-01T09:19:26;16.05;;;2.85;;
75459;SDS011;64039;53.060;9.342;2023-02-01T09:21:51;16.25;;;3.10;;
75459;SDS011;64039;53.060;9.342;2023-02-01T09:24:16;17.20;;;2.67;;
75459;SDS011;64039;53.060;9.342;2023-02-01T09:26:42;23.10;;;2.90;;
75459;SDS011;64039;53.060;9.342;2023-02-01T09:29:08;13.45;;;2.20;;
75459;SDS011;64039;53.060;9.342;2023-02-01T09:31:36;11.43;;;2.35;;
75459;SDS011;64039;53.060;9.342;2023-02-01T09:34:03;14.77;;;3.03;;
75459;SDS011;64039;53.060;9.342;2023-02-01T09:36:29;15.25;;;2.50;;
75459;SDS011;64039;53.060;9.342;2023-02-01T09:38:54;21.73;;;2.88;;
75459;SDS011;64039;53.060;9.342;2023-02-01T09:47:01;13.25;;;2.20;;
75459;SDS011;64039;53.060;9.342;2023-02-01T09:49:30;14.18;;;3.00;;
75459;SDS011;64039;53.060;9.342;2023-02-01T09:51:59;17.63;;;2.63;;
75459;SDS011;64039;53.060;9.342;2023-02-01T09:54:46;20.55;;;3.05;;
75459;SDS011;64039;53.060;9.342;2023-02-01T09:57:28;20.02;;;2.67;;
75459;SDS011;64039;53.060;9.342;2023-02-01T10:00:14;14.98;;;2.60;;
75459;SDS011;64039;53.060;9.342;2023-02-01T10:02:51;14.20;;;2.55;;
75459;SDS011;64039;53.060;9.342;2023-02-01T10:05:25;17.63;;;2.83;;
75459;SDS011;64039;53.060;9.342;2023-02-01T10:10:51;10.98;;;2.53;;
75459;SDS011;64039;53.060;9.342;2023-02-01T10:19:01;25.23;;;3.38;;
75459;SDS011;64039;53.060;9.342;2023-02-01T10:21:42;12.35;;;2.50;;
75459;SDS011;64039;53.060;9.342;2023-02-01T10:29:59;15.68;;;2.60;;
75459;SDS011;64039;53.060;9.342;2023-02-01T10:32:38;15.88;;;2.33;;
75459;SDS011;64039;53.060;9.342;2023-02-01T10:35:46;13.95;;;2.42;;
75459;SDS011;64039;53.060;9.342;2023-02-01T10:37:55;19.17;;;4.05;;
75459;SDS011;64039;53.060;9.342;2023-02-01T10:40:24;18.33;;;3.30;;
75459;SDS011;64039;53.060;9.342;2023-02-01T10:42:56;11.93;;;2.30;;
75459;SDS011;64039;53.060;9.342;2023-02-01T10:45:25;14.60;;;2.67;;
75459;SDS011;64039;53.060;9.342;2023-02-01T10:47:53;11.85;;;2.55;;
75459;SDS011;64039;53.060;9.342;2023-02-01T10:52:51;13.35;;;2.70;;
75459;SDS011;64039;53.060;9.342;2023-02-01T10:57:59;15.00;;;2.50;;
75459;SDS011;64039;53.060;9.342;2023-02-01T11:00:27;17.98;;;2.92;;
75459;SDS011;64039;53.060;9.342;2023-02-01T11:02:54;14.20;;;3.13;;
75459;SDS011;64039;53.060;9.342;2023-02-01T11:05:20;21.50;;;2.40;;
75459;SDS011;64039;53.060;9.342;2023-02-01T11:07:51;16.90;;;3.10;;
75459;SDS011;64039;53.060;9.342;2023-02-01T11:10:34;16.58;;;2.58;;
75459;SDS011;64039;53.060;9.342;2023-02-01T11:13:15;12.75;;;2.33;;
75459;SDS011;64039;53.060;9.342;2023-02-01T11:15:46;9.35;;;2.38;;
75459;SDS011;64039;53.060;9.342;2023-02-01T11:18:19;10.85;;;2.05;;
75459;SDS011;64039;53.060;9.342;2023-02-01T11:20:51;13.00;;;2.35;;
75459;SDS011;64039;53.060;9.342;2023-02-01T11:23:19;17.13;;;2.47;;
75459;SDS011;64039;53.060;9.342;2023-02-01T11:25:56;11.77;;;2.78;;
75459;SDS011;64039;53.060;9.342;2023-02-01T11:28:28;9.35;;;2.28;;
75459;SDS011;64039;53.060;9.342;2023-02-01T11:30:58;16.70;;;3.17;;
75459;SDS011;64039;53.060;9.342;2023-02-01T11:33:29;17.73;;;2.58;;
75459;SDS011;64039;53.060;9.342;2023-02-01T11:35:59;16.08;;;2.53;;
75459;SDS011;64039;53.060;9.342;2023-02-01T11:38:27;10.02;;;2.53;;
75459;SDS011;64039;53.060;9.342;2023-02-01T11:40:55;13.60;;;2.50;;
75459;SDS011;64039;53.060;9.342;2023-02-01T11:43:35;12.15;;;2.38;;
75459;SDS011;64039;53.060;9.342;2023-02-01T11:46:02;11.10;;;2.00;;
75459;SDS011;64039;53.060;9.342;2023-02-01T11:48:29;8.30;;;1.83;;
75459;SDS011;64039;53.060;9.342;2023-02-01T11:56:36;14.30;;;2.40;;
75459;SDS011;64039;53.060;9.342;2023-02-01T11:59:23;12.43;;;2.05;;
75459;SDS011;64039;53.060;9.342;2023-02-01T12:04:58;12.73;;;2.53;;
75459;SDS011;64039;53.060;9.342;2023-02-01T12:16:35;7.53;;;1.70;;
75459;SDS011;64039;53.060;9.342;2023-02-01T12:19:37;7.22;;;1.77;;
75459;SDS011;64039;53.060;9.342;2023-02-01T12:22:44;6.10;;;1.50;;
75459;SDS011;64039;53.060;9.342;2023-02-01T12:25:37;7.40;;;1.50;;
75459;SDS011;64039;53.060;9.342;2023-02-01T12:31:28;4.45;;;1.63;;
75459;SDS011;64039;53.060;9.342;2023-02-01T12:34:15;4.55;;;1.38;;
75459;SDS011;64039;53.060;9.342;2023-02-01T12:39:39;6.63;;;1.65;;
75459;SDS011;64039;53.060;9.342;2023-02-01T12:42:24;4.95;;;1.30;;
75459;SDS011;64039;53.060;9.342;2023-02-01T12:45:38;0.77;;;0.50;;
75459;SDS011;64039;53.060;9.342;2023-02-01T12:48:00;4.80;;;0.60;;
75459;SDS011;64039;53.060;9.342;2023-02-01T12:50:41;3.10;;;0.68;;
75459;SDS011;64039;53.060;9.342;2023-02-01T12:53:31;1.35;;;0.40;;
75459;SDS011;64039;53.060;9.342;2023-02-01T12:56:00;0.88;;;0.40;;
75459;SDS011;64039;53.060;9.342;2023-02-01T12:58:40;0.50;;;0.40;;
75459;SDS011;64039;53.060;9.342;2023-02-01T13:01:25;1.35;;;0.60;;
75459;SDS011;64039;53.060;9.342;2023-02-01T13:04:02;1.05;;;0.50;;
75459;SDS011;64039;53.060;9.342;2023-02-01T13:09:41;0.85;;;0.55;;
75459;SDS011;64039;53.060;9.342;2023-02-01T13:12:17;0.70;;;0.40;;
75459;SDS011;64039;53.060;9.342;2023-02-01T13:14:58;0.90;;;0.40;;
75459;SDS011;64039;53.060;9.342;2023-02-01T13:17:30;0.85;;;0.50;;
75459;SDS011;64039;53.060;9.342;2023-02-01T13:25:54;0.40;;;0.40;;
75459;SDS011;64039;53.060;9.342;2023-02-01T13:28:25;0.57;;;0.43;;
75459;SDS011;64039;53.060;9.342;2023-02-01T13:31:06;1.00;;;0.50;;
75459;SDS011;64039;53.060;9.342;2023-02-01T13:37:04;0.68;;;0.50;;
75459;SDS011;64039;53.060;9.342;2023-02-01T13:39:41;1.35;;;0.52;;
75459;SDS011;64039;53.060;9.342;2023-02-01T13:42:28;2.15;;;0.40;;
75459;SDS011;64039;53.060;9.342;2023-02-01T13:45:03;1.67;;;0.63;;
75459;SDS011;64039;53.060;9.342;2023-02-01T13:47:39;2.20;;;0.60;;
75459;SDS011;64039;53.060;9.342;2023-02-01T13:52:50;0.63;;;0.50;;
75459;SDS011;64039;53.060;9.342;2023-02-01T13:57:49;3.92;;;1.10;;
75459;SDS011;64039;53.060;9.342;2023-02-01T14:00:23;6.65;;;1.23;;
75459;SDS011;64039;53.060;9.342;2023-02-01T14:08:10;4.22;;;1.20;;
75459;SDS011;64039;53.060;9.342;2023-02-01T14:13:23;12.02;;;1.25;;
75459;SDS011;64039;53.060;9.342;2023-02-01T14:23:43;8.10;;;1.42;;
75459;SDS011;64039;53.060;9.342;2023-02-01T14:26:12;6.15;;;1.20;;
75459;SDS011;64039;53.060;9.342;2023-02-01T14:29:03;7.28;;;1.10;;
75459;SDS011;64039;53.060;9.342;2023-02-01T14:36:59;9.50;;;1.42;;
75459;SDS011;64039;53.060;9.342;2023-02-01T14:39:34;12.65;;;1.63;;
75459;SDS011;64039;53.060;9.342;2023-02-01T14:42:17;14.20;;;1.65;;
75459;SDS011;64039;53.060;9.342;2023-02-01T14:44:52;12.00;;;1.63;;
75459;SDS011;64039;53.060;9.342;2023-02-01T14:52:34;15.80;;;1.65;;
75459;SDS011;64039;53.060;9.342;2023-02-01T14:55:37;10.18;;;1.77;;
75459;SDS011;64039;53.060;9.342;2023-02-01T14:58:18;8.77;;;1.50;;
75459;SDS011;64039;53.060;9.342;2023-02-01T15:01:33;11.70;;;1.58;;
75459;SDS011;64039;53.060;9.342;2023-02-01T15:06:44;9.82;;;2.00;;
75459;SDS011;64039;53.060;9.342;2023-02-01T15:09:19;10.40;;;1.85;;
75459;SDS011;64039;53.060;9.342;2023-02-01T15:14:42;11.00;;;2.03;;
75459;SDS011;64039;53.060;9.342;2023-02-01T15:19:56;11.63;;;1.73;;
75459;SDS011;64039;53.060;9.342;2023-02-01T15:22:28;7.28;;;1.85;;
75459;SDS011;64039;53.060;9.342;2023-02-01T15:24:56;9.15;;;1.73;;
75459;SDS011;64039;53.060;9.342;2023-02-01T15:27:23;9.07;;;1.80;;
75459;SDS011;64039;53.060;9.342;2023-02-01T15:29:49;11.50;;;1.33;;
75459;SDS011;64039;53.060;9.342;2023-02-01T15:32:28;8.57;;;1.42;;
75459;SDS011;64039;53.060;9.342;2023-02-01T15:35:03;5.50;;;1.42;;
75459;SDS011;64039;53.060;9.342;2023-02-01T15:37:31;9.45;;;1.60;;
75459;SDS011;64039;53.060;9.342;2023-02-01T15:40:18;10.88;;;1.80;;
75459;SDS011;64039;53.060;9.342;2023-02-01T15:42:57;7.32;;;1.60;;
75459;SDS011;64039;53.060;9.342;2023-02-01T15:45:28;8.50;;;2.10;;
75459;SDS011;64039;53.060;9.342;2023-02-01T15:47:56;13.20;;;1.73;;
75459;SDS011;64039;53.060;9.342;2023-02-01T15:50:23;14.05;;;1.65;;
75459;SDS011;64039;53.060;9.342;2023-02-01T15:52:52;11.63;;;1.98;;
75459;SDS011;64039;53.060;9.342;2023-02-01T15:55:24;11.88;;;1.85;;
75459;SDS011;64039;53.060;9.342;2023-02-01T15:58:06;13.25;;;2.00;;
75459;SDS011;64039;53.060;9.342;2023-02-01T16:00:51;10.85;;;1.27;;
75459;SDS011;64039;53.060;9.342;2023-02-01T16:06:12;15.63;;;1.70;;
75459;SDS011;64039;53.060;9.342;2023-02-01T16:11:39;21.38;;;2.15;;
75459;SDS011;64039;53.060;9.342;2023-02-01T16:14:25;14.90;;;2.40;;
75459;SDS011;64039;53.060;9.342;2023-02-01T16:16:52;11.95;;;2.17;;
75459;SDS011;64039;53.060;9.342;2023-02-01T16:19:19;13.23;;;2.08;;
75459;SDS011;64039;53.060;9.342;2023-02-01T16:21:46;11.98;;;1.73;;
75459;SDS011;64039;53.060;9.342;2023-02-01T16:24:12;12.27;;;1.75;;
75459;SDS011;64039;53.060;9.342;2023-02-01T16:26:37;11.32;;;1.80;;
75459;SDS011;64039;53.060;9.342;2023-02-01T16:29:03;14.98;;;2.28;;
75459;SDS011;64039;53.060;9.342;2023-02-01T16:31:32;12.55;;;1.80;;
75459;SDS011;64039;53.060;9.342;2023-02-01T16:34:00;12.13;;;2.28;;
75459;SDS011;64039;53.060;9.342;2023-02-01T16:36:26;14.73;;;2.08;;
75459;SDS011;64039;53.060;9.342;2023-02-01T16:38:53;15.48;;;2.47;;
75459;SDS011;64039;53.060;9.342;2023-02-01T16:41:20;10.70;;;1.73;;
75459;SDS011;64039;53.060;9.342;2023-02-01T16:43:50;20.92;;;2.88;;
75459;SDS011;64039;53.060;9.342;2023-02-01T16:46:17;13.77;;;2.38;;
75459;SDS011;64039;53.060;9.342;2023-02-01T16:48:48;18.70;;;2.30;;
75459;SDS011;64039;53.060;9.342;2023-02-01T16:51:20;8.30;;;1.63;;
75459;SDS011;64039;53.060;9.342;2023-02-01T16:53:48;7.20;;;1.50;;
75459;SDS011;64039;53.060;9.342;2023-02-01T16:56:18;9.60;;;1.70;;
75459;SDS011;64039;53.060;9.342;2023-02-01T16:58:46;13.50;;;1.80;;
75459;SDS011;64039;53.060;9.342;2023-02-01T17:01:15;13.73;;;1.75;;
75459;SDS011;64039;53.060;9.342;2023-02-01T17:03:43;7.82;;;1.75;;
75459;SDS011;64039;53.060;9.342;2023-02-01T17:06:11;9.65;;;1.60;;
75459;SDS011;64039;53.060;9.342;2023-02-01T17:08:42;7.90;;;1.65;;
75459;SDS011;64039;53.060;9.342;2023-02-01T17:11:10;6.97;;;1.25;;
75459;SDS011;64039;53.060;9.342;2023-02-01T17:13:37;9.05;;;1.58;;
75459;SDS011;64039;53.060;9.342;2023-02-01T17:16:04;11.25;;;1.65;;
75459;SDS011;64039;53.060;9.342;2023-02-01T17:18:36;12.32;;;1.70;;
75459;SDS011;64039;53.060;9.342;2023-02-01T17:21:02;9.55;;;1.77;;